createdAt,value
2022-11-08T00:00:49.184Z,9.5
2022-11-08T00:06:37.912Z,9.6
2022-11-08T00:12:37.960Z,9.7
2022-11-08T00:18:38.253Z,9.9
2022-11-08T00:24:38.799Z,9.9
2022-11-08T00:30:55.526Z,9.9
2022-11-08T00:36:38.154Z,9.8
2022-11-08T00:42:38.014Z,9.8
2022-11-08T00:48:37.885Z,9.8
2022-11-08T00:54:38.175Z,9.8
2022-11-08T01:00:51.615Z,9.8
2022-11-08T01:06:37.994Z,9.8
2022-11-08T01:12:38.044Z,9.8
2022-11-08T01:18:38.122Z,9.8
2022-11-08T01:24:39.512Z,9.8
2022-11-08T01:30:53.009Z,9.8
2022-11-08T01:36:38.462Z,9.9
2022-11-08T01:42:38.128Z,9.8
2022-11-08T01:48:38.011Z,9.8
2022-11-08T01:54:37.753Z,9.7
2022-11-08T02:00:43.200Z,9.8
2022-11-08T02:06:38.969Z,9.6
2022-11-08T02:12:37.971Z,9.6
2022-11-08T02:18:37.960Z,9.4
2022-11-08T02:24:38.176Z,9.4
2022-11-08T02:30:48.445Z,9.4
2022-11-08T02:36:37.887Z,9.3
2022-11-08T02:42:37.925Z,9.2
2022-11-08T02:48:38.200Z,9.2
2022-11-08T02:54:38.610Z,9.2
2022-11-08T03:00:49.857Z,9.2
2022-11-08T03:06:38.114Z,9.1
2022-11-08T03:12:38.841Z,9.1
2022-11-08T03:18:38.886Z,9.1
2022-11-08T03:24:38.676Z,9
2022-11-08T03:30:52.971Z,9
2022-11-08T03:36:38.577Z,8.9
2022-11-08T03:42:38.581Z,9
2022-11-08T03:48:39.028Z,8.9
2022-11-08T03:54:38.431Z,8.9
2022-11-08T04:00:50.448Z,8.9
2022-11-08T04:06:38.596Z,8.9
2022-11-08T04:12:44.870Z,8.8
2022-11-08T04:18:59.283Z,8.7
2022-11-08T04:24:51.789Z,8.8
2022-11-08T04:31:11.864Z,8.7
2022-11-08T04:36:51.503Z,8.7
2022-11-08T04:42:49.131Z,8.6
2022-11-08T04:48:51.054Z,8.6
2022-11-08T04:54:42.296Z,8.4
2022-11-08T05:01:01.412Z,8.4
2022-11-08T05:07:08.609Z,8.4
2022-11-08T05:12:47.967Z,8.3
2022-11-08T05:18:42.336Z,8.3
2022-11-08T05:24:47.583Z,8.4
2022-11-08T05:30:59.345Z,8.2
2022-11-08T05:36:53.105Z,8.2
2022-11-08T05:42:51.239Z,8.2
2022-11-08T05:48:52.483Z,8.2
2022-11-08T05:54:49.931Z,8.2
2022-11-08T06:01:08.444Z,8.1
2022-11-08T06:06:41.177Z,8
2022-11-08T06:12:45.549Z,8.1
2022-11-08T06:18:48.771Z,7.9
2022-11-08T06:24:43.554Z,7.9
2022-11-08T06:30:58.346Z,7.9
2022-11-08T06:36:45.612Z,7.8
2022-11-08T06:42:43.202Z,7.8
2022-11-08T06:48:52.151Z,7.9
2022-11-08T06:54:48.608Z,7.7
2022-11-08T07:01:08.154Z,7.7
2022-11-08T07:06:39.531Z,7.8
2022-11-08T07:12:53.579Z,7.8
2022-11-08T07:18:45.502Z,7.8
2022-11-08T07:24:42.156Z,7.8
2022-11-08T07:31:04.140Z,7.8
2022-11-08T07:36:47.761Z,8
2022-11-08T07:43:11.295Z,8
2022-11-08T07:48:47.621Z,8
2022-11-08T07:54:42.451Z,8.1
2022-11-08T08:00:59.633Z,8.1
2022-11-08T08:06:54.822Z,7.9
2022-11-08T08:12:58.450Z,7.9
2022-11-08T08:19:07.509Z,7.9
2022-11-08T08:25:03.341Z,7.9
2022-11-08T08:30:57.345Z,8.2
2022-11-08T08:36:40.785Z,8
2022-11-08T08:42:47.185Z,8.2
2022-11-08T08:48:49.523Z,8.3
2022-11-08T08:54:44.050Z,8.4
2022-11-08T09:06:47.159Z,8.6
2022-11-08T09:12:56.749Z,8.8
2022-11-08T09:18:44.458Z,9.2
2022-11-08T09:24:44.638Z,9.4
2022-11-08T09:31:03.960Z,9.4
2022-11-08T09:36:56.517Z,9.3
2022-11-08T09:42:42.193Z,9.2
2022-11-08T09:48:39.703Z,8.8
2022-11-08T09:54:42.146Z,8.8
2022-11-08T10:00:51.449Z,8.6
2022-11-08T10:06:47.984Z,8.3
2022-11-08T10:12:38.436Z,8.5
2022-11-08T10:18:38.225Z,8.3
2022-11-08T10:24:38.039Z,8.5
2022-11-08T10:30:57.596Z,8.5
2022-11-08T10:36:58.052Z,8.5
2022-11-08T10:42:40.331Z,8.5
2022-11-08T10:48:45.642Z,8.6
2022-11-08T10:54:39.695Z,8.6
2022-11-08T11:00:53.933Z,8.6
2022-11-08T11:06:40.065Z,8.6
2022-11-08T11:12:41.722Z,8.5
2022-11-08T11:18:38.705Z,8.6
2022-11-08T11:24:38.399Z,8.8
2022-11-08T11:30:54.529Z,8.7
2022-11-08T11:36:40.000Z,8.9
2022-11-08T11:42:46.102Z,9
2022-11-08T11:48:39.207Z,9.1
2022-11-08T11:54:53.916Z,9.1
2022-11-08T12:00:52.044Z,9
2022-11-08T12:06:40.628Z,9
2022-11-08T12:12:38.377Z,9
2022-11-08T12:18:43.137Z,9
2022-11-08T12:24:38.682Z,9.4
2022-11-08T12:30:50.850Z,9.3
2022-11-08T12:36:39.771Z,9.2
2022-11-08T12:42:40.102Z,9.2
2022-11-08T12:48:38.708Z,9.4
2022-11-08T12:54:38.897Z,9.2
2022-11-08T13:00:53.588Z,9
2022-11-08T13:06:40.700Z,8.9
2022-11-08T13:12:39.729Z,8.9
2022-11-08T13:18:38.242Z,8.9
2022-11-08T13:24:44.286Z,8.9
2022-11-08T13:31:00.813Z,9.1
2022-11-08T13:36:41.975Z,9.3
2022-11-08T13:42:38.452Z,9.3
2022-11-08T13:48:39.177Z,9.3
2022-11-08T13:54:38.295Z,9.3
2022-11-08T14:00:46.302Z,9.4
2022-11-08T14:06:38.903Z,9.3
2022-11-08T14:12:40.337Z,9.3
2022-11-08T14:18:38.238Z,9.2
2022-11-08T14:24:46.205Z,9.1
2022-11-08T14:30:50.880Z,9.2
2022-11-08T14:36:46.340Z,9.1
2022-11-08T14:42:48.929Z,8.9
2022-11-08T14:48:47.416Z,9.1
2022-11-08T14:55:00.524Z,9.3
2022-11-08T15:00:57.401Z,9.2
2022-11-08T15:06:39.847Z,9.1
2022-11-08T15:12:45.216Z,9.1
2022-11-08T15:18:50.827Z,9.2
2022-11-08T15:24:42.701Z,8.9
2022-11-08T15:30:49.815Z,9
2022-11-08T15:36:45.523Z,9
2022-11-08T15:42:53.052Z,9
2022-11-08T15:48:50.897Z,9
2022-11-08T15:54:49.835Z,8.9
2022-11-08T16:01:04.845Z,8.9
2022-11-08T16:07:14.826Z,8.9
2022-11-08T16:12:47.415Z,8.9
2022-11-08T16:18:53.697Z,8.9
2022-11-08T16:24:55.763Z,9
2022-11-08T16:30:56.791Z,8.9
2022-11-08T16:37:05.856Z,9
2022-11-08T16:42:48.900Z,9
2022-11-08T16:48:51.286Z,9
2022-11-08T16:54:49.278Z,9.1
2022-11-08T17:00:54.856Z,9
2022-11-08T17:06:47.229Z,9
2022-11-08T17:12:47.341Z,9.1
2022-11-08T17:19:06.466Z,9.1
2022-11-08T17:24:58.939Z,9.1
2022-11-08T17:30:57.568Z,9.2
2022-11-08T17:36:43.898Z,9.1
2022-11-08T17:43:02.292Z,9.1
2022-11-08T17:48:52.304Z,9.1
2022-11-08T17:54:53.224Z,9.1
2022-11-08T18:00:43.377Z,9.2
2022-11-08T18:06:54.905Z,9.3
2022-11-08T18:12:57.378Z,9.3
2022-11-08T18:18:49.719Z,9.4
2022-11-08T18:24:47.603Z,9.4
2022-11-08T18:31:02.966Z,9.4
2022-11-08T18:37:00.677Z,9.4
2022-11-08T18:42:56.412Z,9.4
2022-11-08T18:48:53.684Z,9.5
2022-11-08T18:54:53.326Z,9.5
2022-11-08T19:00:57.505Z,9.5
2022-11-08T19:06:57.463Z,9.6
2022-11-08T19:12:52.560Z,9.5
2022-11-08T19:18:50.613Z,9.6
2022-11-08T19:24:48.345Z,9.6
2022-11-08T19:30:55.091Z,9.6
2022-11-08T19:36:43.688Z,9.6
2022-11-08T19:42:51.288Z,9.6
2022-11-08T19:48:48.801Z,9.5
2022-11-08T19:54:56.713Z,9.6
2022-11-08T20:01:04.541Z,9.7
2022-11-08T20:06:51.609Z,9.7
2022-11-08T20:12:44.875Z,9.7
2022-11-08T20:18:40.442Z,9.8
2022-11-08T20:24:43.151Z,9.8
2022-11-08T20:30:59.891Z,9.8
2022-11-08T20:36:42.226Z,9.8
2022-11-08T20:42:43.250Z,9.9
2022-11-08T20:48:50.646Z,10
2022-11-08T20:55:12.486Z,10
2022-11-08T21:01:14.629Z,10.1
2022-11-08T21:06:44.123Z,10.1
2022-11-08T21:12:46.497Z,10
2022-11-08T21:18:54.700Z,10
2022-11-08T21:25:01.701Z,10
2022-11-08T21:30:54.825Z,9.9
2022-11-08T21:36:57.177Z,9.9
2022-11-08T21:42:48.519Z,9.8
2022-11-08T21:48:44.187Z,10
2022-11-08T21:54:43.979Z,10
2022-11-08T22:01:00.052Z,10
2022-11-08T22:06:47.658Z,10
2022-11-08T22:12:47.391Z,10
2022-11-08T22:19:05.705Z,10
2022-11-08T22:24:46.455Z,10.1
2022-11-08T22:30:56.756Z,10.1
2022-11-08T22:37:03.626Z,10.1
2022-11-08T22:42:52.292Z,10.2
2022-11-08T22:48:50.981Z,10.3
2022-11-08T22:54:45.998Z,10.3
2022-11-08T23:01:14.040Z,10.4
2022-11-08T23:07:00.390Z,10.4
2022-11-08T23:12:41.235Z,10.4
2022-11-08T23:18:39.341Z,10.5
2022-11-08T23:24:41.183Z,10.4
2022-11-08T23:30:54.671Z,10.5
2022-11-08T23:36:43.257Z,10.5
2022-11-08T23:42:47.659Z,10.5
2022-11-08T23:48:42.734Z,10.6
2022-11-08T23:54:46.942Z,10.6
